Meteo Giornale » Osservazioni meteo Kazakhstan » Aktau
ore: 06:30 - Osservazioni Meteo Aktau
Lat. 43° 52' N Lon. 51° 6' E Alt. metri s.l.m.
20 °C
Sereno
Temp. 24 Ore
17 °C
29 °C
Est/Nord-Est
14.4 Km/h
Dew point -5 °C
Umidità 18 %
Visibilità 10 Km
Il sole sorge alle ore 06:58
Il sole tramonta alle ore 20:12
| Data e Ora | Cielo e Fenomeni | T °C | DP °C | Um. % | Pres. hPa | Vis. km | Vento km/h | |
|---|---|---|---|---|---|---|---|---|
| Oggi h: 06:30 | Sereno | 20 | -5 | 18 | 1018 | 10 | E/NE 14.4 | |
| Oggi h: 06:00 | Sereno | 20 | -5 | 18 | 1018 | 10 | E/NE 10.8 | |
| Oggi h: 05:30 | Sereno | 20 | -5 | 18 | 1018 | 10 | E/NE 14.4 | |
| Oggi h: 05:00 | Sereno | 21 | -5 | 16 | 1018 | 10 | E/NE 14.4 | |
| Oggi h: 04:30 | Sereno | 21 | -5 | 16 | 1018 | 10 | E/NE 14.4 | |
| Oggi h: 04:00 | Sereno | 22 | -5 | 15 | 1018 | 10 | E/NE 14.4 | |
| Oggi h: 03:30 | Sereno | 22 | -5 | 15 | 1018 | 10 | E 14.4 | |
| Oggi h: 03:00 | Sereno | 23 | -5 | 14 | 1018 | 10 | E 18 | |
| Oggi h: 02:30 | Sereno | 22 | -5 | 15 | 1018 | 10 | E/NE 18 | |
| Oggi h: 02:00 | Sereno | 23 | -4 | 16 | 1018 | 10 | E 18 | |
| Oggi h: 01:30 | Sereno | 23 | -4 | 16 | 1018 | 10 | E 18 | |
| Oggi h: 01:00 | Sereno | 23 | -4 | 16 | 1018 | 10 | E/NE 18 | |
| Oggi h: 00:30 | Sereno | 23 | -5 | 14 | 1017 | 10 | NE 14.4 | |
| Oggi h: 00:00 | Sereno | 23 | -4 | 16 | 1017 | 10 | NE 21.6 | |
| Ieri h: 23:30 | Sereno | 24 | -4 | 15 | 1017 | 10 | E/NE 21.6 | |
| Ieri h: 23:00 | Sereno | 24 | -1 | 19 | 1018 | 10 | NE 14.4 | |
| Ieri h: 22:30 | Sereno | 23 | -2 | 18 | 1018 | 10 | N 14.4 | |
| Ieri h: 22:00 | Sereno | 23 | -2 | 18 | 1018 | 10 | N/NO 14.4 | |
| Ieri h: 21:30 | Sereno | 23 | -1 | 20 | 1018 | 10 | N/NO 14.4 | |
| Ieri h: 21:00 | Poco Nuvoloso | 23 | 0 | 21 | 1017 | 10 | NO 14.4 | |
| Ieri h: 20:30 | Poco Nuvoloso | 23 | 0 | 21 | 1017 | 10 | N 7.2 | |
| Ieri h: 20:00 | Poco Nuvoloso | 23 | 1 | 23 | 1017 | 10 | O/NO 10.8 | |
| Ieri h: 19:30 | Poco Nuvoloso | 24 | 3 | 25 | 1017 | 10 | O/NO 10.8 | |
| Ieri h: 19:00 | Poco Nuvoloso | 25 | 5 | 27 | 1017 | 10 | O 14.4 | |
| Ieri h: 18:30 | Poco Nuvoloso | 27 | 4 | 22 | 1017 | 10 | O 18 | |
| Ieri h: 18:00 | Poco Nuvoloso | 28 | -1 | 15 | 1017 | 10 | S/SE 14.4 | |
| Ieri h: 17:30 | Poco Nuvoloso | 28 | -1 | 15 | 1017 | 10 | S/SE 18 | |
| Ieri h: 17:00 | Nuvoloso | 28 | -1 | 15 | 1017 | 10 | S 14.4 | |
| Ieri h: 16:30 | Nuvoloso | 28 | 1 | 17 | 1017 | 10 | S/SE 21.6 | |
| Ieri h: 16:00 | Nuvoloso | 29 | -3 | 12 | 1017 | 10 | SE 21.6 | |
| Ieri h: 15:30 | Nuvoloso | 28 | -3 | 12 | 1018 | 10 | S/SE 21.6 | |
| Ieri h: 15:00 | Nuvoloso | 28 | -3 | 12 | 1018 | 10 | E/NE 28.8 | |
| Ieri h: 14:30 | Nuvoloso | 27 | -3 | 13 | 1018 | 10 | E/NE 32.4 | |
| Ieri h: 14:00 | Nuvoloso | 27 | -4 | 12 | 1018 | 10 | E/NE 32.4 | |
| Ieri h: 13:30 | Nuvoloso | 27 | -4 | 12 | 1018 | 10 | E/NE 28.8 | |
| Ieri h: 13:00 | Nuvoloso | 27 | -4 | 12 | 1018 | 10 | E/NE 25.2 | |
| Ieri h: 12:30 | Poco Nuvoloso | 27 | -4 | 12 | 1018 | 10 | E/NE 32.4 | |
| Ieri h: 12:00 | Sereno | 28 | -3 | 12 | 1018 | 10 | E/NE 36 | |
| Ieri h: 11:30 | Sereno | 26 | -3 | 14 | 1018 | 10 | E/NE 36 | |
| Ieri h: 11:00 | Sereno | 27 | -3 | 13 | 1018 | 10 | NE 36 | |
| Ieri h: 10:30 | Sereno | 25 | -3 | 15 | 1018 | 10 | E/NE 32.4 | |
| Ieri h: 10:00 | Sereno | 24 | -2 | 17 | 1019 | 10 | E/NE 28.8 | |
| Ieri h: 09:30 | Sereno | 22 | -2 | 19 | 1018 | 10 | NE 28.8 | |
| Ieri h: 09:00 | Sereno | 21 | -2 | 21 | 1018 | 10 | NE 28.8 | |
| Ieri h: 08:30 | Sereno | 19 | -2 | 24 | 1018 | 10 | NE 25.2 | |
| Ieri h: 08:00 | Sereno | 17 | -2 | 27 | 1018 | 10 | NE 21.6 | |



